»·PEaware :: N23MZ KSNA-KSBD

N23MZ :: KSNA-KSBD

FLIGHT INFORMATION

Flight Status: Arrived
Operator: Privately registered:
United States
More flights under this callsign
Pilot: Adam S. (8156)
Aircraft: CESSNA 172 SKYHAWK
(C172)
More flights by this aircraft type
Origin: KSNA John Wayne-Orange Co
United States
Destination: KSBD San Bernardino Intl
United States
More flights between these airports :: More routes between these airports
Route: +SLI V8 PDZ
File this flight plan on PilotEdge
Remarks:
Altitude:
(Current/Filed)
3,000ft
Speed:
(Current/Filed)
120kts
Departed: 08-Oct-18 10:30 AM
Arrived: 08-Oct-18 11:00 AM
Distance/Time
Traveled:
40nm/0:30
Distance/Time
To Go:
Arrived

Flight Plot

Page will automatically refresh every two minutes.


Map Options




Map Legend


Flown Route
Filed Route
Departure Airport
Arrival Airport
Navaid (VOR, NDB)
Fix

Horizontal Profiles

Position Reports

Time Latitude Longitude Heading Altitude Ground
Speed
08-Oct-18 10:12 33.671520 -117.867198 26 60ft 0kts
08-Oct-18 10:13 33.671520 -117.867198 26 60ft 0kts
08-Oct-18 10:14 33.671520 -117.867198 26 60ft 0kts
08-Oct-18 10:15 33.671520 -117.867198 26 60ft 0kts
08-Oct-18 10:16 33.671520 -117.867198 26 60ft 0kts
08-Oct-18 10:17 33.671520 -117.867198 26 60ft 0kts
08-Oct-18 10:18 33.671520 -117.867198 26 60ft 0kts
08-Oct-18 10:19 33.671520 -117.867198 26 60ft 0kts
08-Oct-18 10:20 33.671520 -117.867198 26 60ft 0kts
08-Oct-18 10:21 33.671520 -117.867198 26 60ft 0kts
08-Oct-18 10:22 33.671520 -117.867198 26 60ft 0kts
08-Oct-18 10:23 33.671520 -117.867198 26 60ft 0kts
08-Oct-18 10:24 33.671520 -117.867198 26 60ft 0kts
08-Oct-18 10:25 33.672320 -117.867447 1 60ft 13kts
08-Oct-18 10:26 33.674979 -117.866505 26 60ft 8kts
08-Oct-18 10:27 33.677231 -117.865075 26 60ft 12kts
08-Oct-18 10:28 33.679943 -117.863475 307 60ft 0kts
08-Oct-18 10:29 33.679943 -117.863475 307 60ft 0kts
08-Oct-18 10:30 33.679943 -117.863475 307 60ft 0kts
08-Oct-18 10:31 33.679943 -117.863475 307 60ft 0kts
08-Oct-18 10:32 33.678810 -117.864976 210 60ft 44kts
08-Oct-18 10:33 33.662169 -117.876930 227 763ft 85kts
08-Oct-18 10:34 33.646984 -117.899454 236 1619ft 96kts
08-Oct-18 10:35 33.631122 -117.923071 234 2520ft 92kts
08-Oct-18 10:36 33.618070 -117.947936 268 3350ft 92kts
08-Oct-18 10:37 33.638327 -117.957746 342 4068ft 101kts
08-Oct-18 10:38 33.664508 -117.952487 23 4796ft 98kts
08-Oct-18 10:39 33.693294 -117.947057 6 5041ft 121kts
08-Oct-18 10:40 33.724985 -117.943364 6 5066ft 131kts
08-Oct-18 10:41 33.758021 -117.939565 5 5056ft 130kts
08-Oct-18 10:42 33.791970 -117.935650 4 5049ft 130kts
08-Oct-18 10:43 33.820880 -117.921266 72 5034ft 130kts
08-Oct-18 10:44 33.829396 -117.879477 73 5049ft 130kts
08-Oct-18 10:45 33.838808 -117.837826 72 5045ft 130kts
08-Oct-18 10:46 33.848630 -117.796640 72 5043ft 130kts
08-Oct-18 10:47 33.858616 -117.755760 72 5082ft 132kts
08-Oct-18 10:48 33.868985 -117.713730 70 5079ft 133kts
08-Oct-18 10:49 33.879581 -117.671299 72 5082ft 133kts
08-Oct-18 10:50 33.889996 -117.628954 72 5078ft 133kts
08-Oct-18 10:51 33.901644 -117.587204 68 5083ft 133kts
08-Oct-18 10:52 33.914494 -117.546499 49 5083ft 128kts
08-Oct-18 10:53 33.945911 -117.522134 30 4619ft 139kts
08-Oct-18 10:54 33.978903 -117.498196 29 4130ft 139kts
08-Oct-18 10:55 34.009998 -117.474380 31 3978ft 130kts
08-Oct-18 10:56 34.037860 -117.446301 40 3785ft 141kts
08-Oct-18 10:57 34.050815 -117.404636 94 3175ft 153kts
08-Oct-18 10:58 34.060462 -117.363291 88 2922ft 132kts
08-Oct-18 10:59 34.065591 -117.322345 52 2340ft 150kts
08-Oct-18 11:00 34.080575 -117.280434 70 1564ft 136kts
08-Oct-18 11:01 34.090321 -117.251279 72 1215ft 72kts
08-Oct-18 11:02 34.093881 -117.241107 17 1133ft 9kts
08-Oct-18 11:03 34.094597 -117.240661 35 1133ft 0kts

Navigation Log

Ident Type
Flight plan parsing failed, navigation log unavailable